createdAt,value
2023-01-28T01:35:36.946Z,19.92
2023-01-28T01:38:04.154Z,18.65
2023-01-28T01:40:31.356Z,18.35
2023-01-28T01:42:58.563Z,17.15
2023-01-28T01:45:26.266Z,18.67
2023-01-28T01:47:53.372Z,17.75
2023-01-28T01:50:35.847Z,16.67
2023-01-28T01:53:10.142Z,17.50
2023-01-28T01:55:39.273Z,16.27
2023-01-28T01:58:09.358Z,18.08
2023-01-28T02:00:36.499Z,17.95
2023-01-28T02:03:03.915Z,18.02
2023-01-28T02:05:31.032Z,18.65
2023-01-28T02:08:18.175Z,17.15
2023-01-28T02:10:45.988Z,18.38
2023-01-28T02:13:13.630Z,18.00
2023-01-28T02:15:40.815Z,18.90
2023-01-28T02:18:07.980Z,17.92
2023-01-28T02:20:42.903Z,17.60
2023-01-28T02:23:23.616Z,17.75
2023-01-28T02:26:06.103Z,17.10
2023-01-28T02:28:53.507Z,17.88
2023-01-28T02:31:20.806Z,17.90
2023-01-28T02:34:09.919Z,16.70
2023-01-28T02:36:42.152Z,17.15
2023-01-28T02:39:13.722Z,15.25
2023-01-28T02:41:51.025Z,17.20
2023-01-28T02:44:18.178Z,16.52
2023-01-28T02:47:04.206Z,16.25
2023-01-28T02:49:41.079Z,15.55
2023-01-28T02:52:17.864Z,15.43
2023-01-28T02:54:58.836Z,14.73
2023-01-28T02:57:32.134Z,16.30
2023-01-28T03:00:02.232Z,15.63
2023-01-28T03:02:35.680Z,16.17
2023-01-28T03:05:09.132Z,15.68
2023-01-28T03:07:37.406Z,17.08
2023-01-28T03:10:06.539Z,17.58
2023-01-28T03:12:54.598Z,16.50
2023-01-28T03:15:42.943Z,17.42
2023-01-28T03:19:06.773Z,18.02
2023-01-28T03:21:54.458Z,17.20
2023-01-28T03:24:40.199Z,18.40
2023-01-28T03:27:34.920Z,19.83
2023-01-28T03:30:22.686Z,17.50
2023-01-28T03:33:09.526Z,17.58
2023-01-28T03:35:56.040Z,18.52
2023-01-28T03:38:23.223Z,17.52
2023-01-28T03:40:56.242Z,18.85
2023-01-28T03:43:23.550Z,18.30
2023-01-28T03:45:53.613Z,17.23
2023-01-28T03:48:21.558Z,18.13
2023-01-28T03:50:49.123Z,17.50
2023-01-28T03:53:17.158Z,18.08
2023-01-28T03:55:44.914Z,18.40
2023-01-28T03:58:12.610Z,18.08
2023-01-28T04:00:43.554Z,18.30
2023-01-28T04:03:17.419Z,17.48
2023-01-28T04:06:01.250Z,17.17
2023-01-28T04:08:28.449Z,18.38
2023-01-28T04:10:55.618Z,16.75
2023-01-28T04:13:22.847Z,18.30
2023-01-28T04:15:50.379Z,16.65
2023-01-28T04:18:17.507Z,18.13
2023-01-28T04:20:44.617Z,18.00
2023-01-28T04:23:11.784Z,16.38
2023-01-28T04:25:38.892Z,17.85
2023-01-28T04:28:06.074Z,16.27
2023-01-28T04:30:33.319Z,17.55
2023-01-28T04:33:00.550Z,17.55
2023-01-28T04:35:27.691Z,17.35
2023-01-28T04:37:54.891Z,16.67
2023-01-28T04:40:22.008Z,16.58
2023-01-28T04:42:56.020Z,17.77
2023-01-28T04:45:23.238Z,17.05
2023-01-28T04:47:50.639Z,16.77
2023-01-28T04:50:18.064Z,17.02
2023-01-28T04:52:45.320Z,18.10
2023-01-28T04:55:12.828Z,16.65
2023-01-28T04:57:40.208Z,15.82
2023-01-28T05:00:07.704Z,15.90
2023-01-28T05:02:34.820Z,15.18
2023-01-28T05:05:04.871Z,16.33
2023-01-28T05:07:31.991Z,17.15
2023-01-28T05:09:59.108Z,16.02
2023-01-28T05:12:26.298Z,16.77
2023-01-28T05:14:53.402Z,17.92
2023-01-28T05:17:20.570Z,16.40
2023-01-28T05:19:47.761Z,17.63
2023-01-28T05:22:14.891Z,16.77
2023-01-28T05:24:42.017Z,16.33
2023-01-28T05:27:09.305Z,16.60
2023-01-28T05:29:36.423Z,17.95
2023-01-28T05:32:03.604Z,18.83
2023-01-28T05:34:30.790Z,18.35
2023-01-28T05:36:57.941Z,17.38
2023-01-28T05:39:25.147Z,16.05
2023-01-28T05:41:52.322Z,18.08
2023-01-28T05:44:19.438Z,18.35
2023-01-28T05:46:46.763Z,16.42
2023-01-28T05:49:14.157Z,17.77
2023-01-28T05:51:41.326Z,16.52
2023-01-28T05:54:08.470Z,19.30
2023-01-28T05:56:36.614Z,18.13
2023-01-28T05:59:04.376Z,18.83
2023-01-28T06:01:31.525Z,16.98
2023-01-28T06:03:59.302Z,17.48
2023-01-28T06:06:26.478Z,17.33
2023-01-28T06:08:53.608Z,16.60
2023-01-28T06:11:20.834Z,15.73
2023-01-28T06:13:47.945Z,16.08
2023-01-28T06:16:15.127Z,16.13
2023-01-28T06:18:42.646Z,15.30
2023-01-28T06:21:09.789Z,16.13
2023-01-28T06:23:36.965Z,14.32
2023-01-28T06:26:04.191Z,16.63
2023-01-28T06:28:31.992Z,16.15
2023-01-28T06:30:59.163Z,16.83
2023-01-28T06:33:26.460Z,18.27
2023-01-28T06:35:53.607Z,17.80
2023-01-28T06:38:20.763Z,16.20
2023-01-28T06:40:56.021Z,17.05
2023-01-28T06:43:27.652Z,16.30
2023-01-28T06:45:55.264Z,16.85
2023-01-28T06:48:22.564Z,17.25
2023-01-28T06:50:50.104Z,18.13
2023-01-28T06:53:17.611Z,17.60
2023-01-28T06:55:44.831Z,16.08
2023-01-28T06:58:12.218Z,17.92
2023-01-28T07:00:39.740Z,18.10
2023-01-28T07:03:07.277Z,18.05
2023-01-28T07:05:34.602Z,15.73
2023-01-28T07:08:02.338Z,17.73
2023-01-28T07:10:30.057Z,17.90
2023-01-28T07:12:57.279Z,16.38
2023-01-28T07:15:24.435Z,13.55
2023-01-28T07:17:51.645Z,18.23
2023-01-28T07:20:19.002Z,19.25
2023-01-28T07:22:46.919Z,17.80
2023-01-28T07:25:14.911Z,13.50
2023-01-28T07:27:52.689Z,15.13
2023-01-28T07:30:20.876Z,12.77
2023-01-28T07:32:48.416Z,14.70
2023-01-28T07:35:16.002Z,15.07
2023-01-28T07:37:43.232Z,15.85
2023-01-28T07:40:10.787Z,16.35
2023-01-28T07:42:37.915Z,17.15
2023-01-28T07:45:05.302Z,17.63
2023-01-28T07:47:32.809Z,16.00
2023-01-28T07:50:00.350Z,17.27
2023-01-28T07:52:27.565Z,17.00
2023-01-28T07:54:54.719Z,11.13
2023-01-28T07:57:24.818Z,16.58
2023-01-28T07:59:52.023Z,16.42
2023-01-28T08:02:19.215Z,17.77
2023-01-28T08:04:47.383Z,17.10
2023-01-28T08:07:14.691Z,19.10
2023-01-28T08:09:41.869Z,21.27
2023-01-28T08:12:09.125Z,17.40
2023-01-28T08:14:36.890Z,14.68
2023-01-28T08:17:04.011Z,19.83
2023-01-28T10:10:56.072Z,18.13
2023-01-28T10:13:29.358Z,19.50
2023-01-28T10:16:02.433Z,20.88
2023-01-28T10:18:33.820Z,19.15
2023-01-28T10:23:40.452Z,18.05
2023-01-28T10:26:12.322Z,18.70
2023-01-28T10:28:40.686Z,20.08
2023-01-28T10:31:16.783Z,19.45
2023-01-28T10:33:44.164Z,19.13
2023-01-28T10:36:11.334Z,20.08
2023-01-28T10:38:38.492Z,16.20
2023-01-28T10:41:08.756Z,17.58
2023-01-28T10:43:40.124Z,18.42
2023-01-28T10:46:11.623Z,18.77
2023-01-28T10:49:08.169Z,18.77
2023-01-28T10:51:37.157Z,17.95
2023-01-28T10:54:06.002Z,17.15
2023-01-28T10:56:35.645Z,17.50
2023-01-28T10:59:02.812Z,16.50
2023-01-28T11:01:45.234Z,17.15
2023-01-28T11:04:38.780Z,17.40
2023-01-28T11:07:07.432Z,14.82
2023-01-28T11:09:35.947Z,17.40
2023-01-28T11:12:13.759Z,16.80
2023-01-28T11:14:50.204Z,16.13
2023-01-28T11:17:18.470Z,15.88
2023-01-28T11:19:45.782Z,15.93
2023-01-28T11:22:24.160Z,16.92
2023-01-28T11:24:51.539Z,16.48
2023-01-28T11:27:20.309Z,13.90
2023-01-28T11:29:47.503Z,15.80
2023-01-28T11:32:22.124Z,16.00
2023-01-28T11:34:50.651Z,17.35
2023-01-28T11:37:18.576Z,15.60
2023-01-28T11:39:45.716Z,16.55
2023-01-28T11:42:19.651Z,16.25
2023-01-28T11:44:48.007Z,15.55
2023-01-28T11:47:33.746Z,15.50
2023-01-28T11:50:16.549Z,16.63
2023-01-28T11:53:07.765Z,14.20
2023-01-28T11:55:41.039Z,15.40
2023-01-28T11:58:20.255Z,16.30
2023-01-28T12:00:47.337Z,16.58
2023-01-28T12:03:17.551Z,15.60
2023-01-28T12:05:44.815Z,16.48
2023-01-28T12:08:34.628Z,15.65
2023-01-28T12:11:46.129Z,16.23
2023-01-28T12:14:22.226Z,14.93
2023-01-28T12:17:03.032Z,15.27
2023-01-28T12:19:46.999Z,16.67
2023-01-28T12:22:23.907Z,15.02
2023-01-28T12:25:08.989Z,16.92
2023-01-28T12:27:36.158Z,15.50
2023-01-28T12:30:03.360Z,15.35
2023-01-28T12:32:31.531Z,17.88
2023-01-28T12:35:08.193Z,16.73
2023-01-28T12:37:48.913Z,16.25
2023-01-28T12:40:45.377Z,16.10
2023-01-28T12:43:12.449Z,16.38
2023-01-28T12:45:40.974Z,16.55
2023-01-28T12:48:14.589Z,15.95
2023-01-28T12:50:53.831Z,16.27
2023-01-28T12:53:24.310Z,15.95
2023-01-28T12:55:56.618Z,15.83
2023-01-28T12:58:26.614Z,16.17
2023-01-28T13:00:55.548Z,16.73
2023-01-28T13:03:27.822Z,16.75
2023-01-28T13:05:57.649Z,15.07
2023-01-28T13:08:26.197Z,16.02
2023-01-28T13:10:54.632Z,15.60
2023-01-28T13:13:32.982Z,15.95
2023-01-28T13:16:00.801Z,16.83
2023-01-28T13:18:31.746Z,15.70
2023-01-28T13:20:59.161Z,15.90
2023-01-28T13:23:32.609Z,17.50
2023-01-28T13:26:09.818Z,17.02
2023-01-28T13:28:37.045Z,15.38
2023-01-28T13:31:04.492Z,16.60
2023-01-28T13:33:33.065Z,16.27
2023-01-28T13:36:03.444Z,16.80
2023-01-28T13:38:30.941Z,14.60
2023-01-28T13:41:06.519Z,16.73
2023-01-28T13:43:33.681Z,16.30
2023-01-28T13:46:14.058Z,14.82
2023-01-28T13:48:51.858Z,15.50
2023-01-28T13:51:30.441Z,15.68
2023-01-28T13:54:03.315Z,14.88
2023-01-28T13:56:38.234Z,15.98
2023-01-28T13:59:13.640Z,15.73
2023-01-28T14:01:40.872Z,15.38
2023-01-28T14:04:26.624Z,15.13
2023-01-28T14:06:53.814Z,14.38
2023-01-28T14:09:24.051Z,14.73
2023-01-28T14:12:11.200Z,14.98
2023-01-28T14:14:48.527Z,14.60
2023-01-28T14:17:31.818Z,13.98
2023-01-28T14:19:59.229Z,14.30
2023-01-28T14:22:26.813Z,15.27
2023-01-28T14:24:54.858Z,14.30
2023-01-28T14:27:29.854Z,13.77
2023-01-28T14:30:20.350Z,14.57
2023-01-28T14:32:48.983Z,14.32
2023-01-28T14:35:33.288Z,13.85
2023-01-28T14:38:01.299Z,13.45
2023-01-28T14:40:29.510Z,12.93
2023-01-28T14:42:57.102Z,12.23
2023-01-28T14:45:30.099Z,18.67
2023-01-28T14:47:57.297Z,13.40
2023-01-28T14:50:43.429Z,13.15
2023-01-28T14:53:16.647Z,14.00
2023-01-28T14:56:01.881Z,12.65
2023-01-28T14:58:32.522Z,11.88
2023-01-28T15:01:00.905Z,12.70
2023-01-28T15:03:28.953Z,13.98
2023-01-28T15:06:06.262Z,14.30
2023-01-28T15:08:33.512Z,13.23
2023-01-28T15:11:01.600Z,24.55
2023-01-28T15:13:30.066Z,12.52
2023-01-28T15:16:00.840Z,11.82
2023-01-28T15:18:30.821Z,12.25
2023-01-28T15:20:59.124Z,11.45
2023-01-28T15:23:32.909Z,13.55
2023-01-28T15:26:00.640Z,12.02
2023-01-28T15:28:32.110Z,11.20
2023-01-28T15:31:02.231Z,10.55
2023-01-28T15:33:29.502Z,12.50
2023-01-28T15:35:57.636Z,11.40
2023-01-28T15:38:26.917Z,11.25
2023-01-28T15:40:57.157Z,12.65
2023-01-28T15:43:26.497Z,11.75
2023-01-28T15:45:55.982Z,12.35
2023-01-28T15:48:25.242Z,9.80
2023-01-28T15:51:03.146Z,11.38
2023-01-28T15:53:32.683Z,11.23
2023-01-28T15:56:07.819Z,10.15
2023-01-28T15:58:37.322Z,10.35
2023-01-28T16:01:12.988Z,9.80
2023-01-28T16:03:41.305Z,9.38
2023-01-28T16:06:24.837Z,10.55
2023-01-28T16:08:52.202Z,8.35
2023-01-28T16:11:24.147Z,9.88
2023-01-28T20:13:57.467Z,9.20
2023-01-28T20:16:26.414Z,9.60
2023-01-28T20:19:03.927Z,9.40
2023-01-28T20:21:31.597Z,8.30
2023-01-28T20:23:59.799Z,9.98
2023-01-28T20:26:31.881Z,9.70
2023-01-28T20:29:03.201Z,9.85
2023-01-28T20:33:58.534Z,9.43
2023-01-28T20:36:26.425Z,9.90
2023-01-28T20:38:54.605Z,9.10
2023-01-28T20:41:23.206Z,9.65
2023-01-28T20:43:51.117Z,9.57
2023-01-28T20:46:19.416Z,9.60
2023-01-28T20:48:47.053Z,8.98
2023-01-28T20:51:15.633Z,8.57
2023-01-28T20:53:43.201Z,9.90
2023-01-28T20:56:11.267Z,10.07
2023-01-28T20:58:38.377Z,9.60
2023-01-28T21:01:05.734Z,9.88
2023-01-28T21:03:33.098Z,9.45
2023-01-28T21:06:01.189Z,9.15
2023-01-28T21:08:28.313Z,9.45
2023-01-28T21:10:56.268Z,8.75
2023-01-28T21:13:23.472Z,9.82
2023-01-28T21:15:57.560Z,10.40
2023-01-28T21:18:25.076Z,9.38
2023-01-28T21:20:53.655Z,10.57
2023-01-28T21:23:20.916Z,10.65
2023-01-28T21:25:50.071Z,9.63
2023-01-28T21:28:17.638Z,9.35
2023-01-28T21:30:44.902Z,8.65
2023-01-28T21:33:12.389Z,9.10
2023-01-28T21:35:40.153Z,10.10
2023-01-28T21:38:07.523Z,9.90
2023-01-28T21:40:35.418Z,10.20
2023-01-28T21:43:02.853Z,9.90
2023-01-28T21:45:30.549Z,9.25
2023-01-28T21:47:57.960Z,9.45
2023-01-28T21:50:25.137Z,9.20
2023-01-28T21:52:52.394Z,10.65
2023-01-28T21:55:19.655Z,9.55
2023-01-28T21:57:46.819Z,9.27
2023-01-28T22:00:14.668Z,9.50
2023-01-28T22:02:42.124Z,8.65
2023-01-28T22:05:09.346Z,9.52
2023-01-28T22:07:37.048Z,9.07
2023-01-28T22:10:04.270Z,10.18
2023-01-28T22:12:31.436Z,9.70
2023-01-28T22:14:58.635Z,9.18
2023-01-28T22:17:26.239Z,7.70
2023-01-28T22:19:54.520Z,8.90
2023-01-28T22:22:21.745Z,9.00
2023-01-28T22:24:48.870Z,9.18
2023-01-28T22:27:16.079Z,8.98
2023-01-28T22:29:43.263Z,9.35
2023-01-28T22:32:10.409Z,8.93
2023-01-28T22:34:37.533Z,9.82
2023-01-28T22:37:04.822Z,8.73
2023-01-28T22:39:31.940Z,9.95
2023-01-28T22:41:59.074Z,8.93
2023-01-28T22:44:26.984Z,10.40
2023-01-28T22:46:54.129Z,10.02
2023-01-28T22:49:22.094Z,9.43
2023-01-28T22:51:49.284Z,8.82
2023-01-28T22:54:16.395Z,8.57
2023-01-28T22:56:43.611Z,9.07
2023-01-28T22:59:12.469Z,10.20
2023-01-28T23:01:40.053Z,10.00
2023-01-28T23:04:07.294Z,9.98
2023-01-28T23:06:34.654Z,9.52
2023-01-28T23:09:01.788Z,10.38
2023-01-28T23:11:29.028Z,10.15
2023-01-28T23:14:16.171Z,9.95
2023-01-28T23:17:02.280Z,9.48
2023-01-28T23:19:48.448Z,10.60
2023-01-28T23:22:41.019Z,10.98
2023-01-28T23:25:08.910Z,10.82
2023-01-28T23:27:36.101Z,9.93
2023-01-28T23:30:03.849Z,11.30
2023-01-28T23:32:31.209Z,11.07
2023-01-28T23:34:58.336Z,11.13
2023-01-28T23:37:25.438Z,10.30
2023-01-28T23:39:52.604Z,12.30
2023-01-28T23:42:20.848Z,10.45
2023-01-28T23:44:48.394Z,10.43
2023-01-28T23:47:15.712Z,11.68
2023-01-28T23:49:42.969Z,10.38
2023-01-28T23:52:10.352Z,10.98
2023-01-28T23:54:37.743Z,10.40
2023-01-28T23:57:06.078Z,10.45
2023-01-28T23:59:33.229Z,11.45
